Time;durP1;ratioP1;P1;durP2;ratioP2;P2;SDS_P1;SDS_P2;PMS_P1;PMS_P2;Temp;Humidity;BMP_temperature;BMP_pressure;BME280_temperature;BME280_humidity;BME280_pressure;Samples;Min_cycle;Max_cycle;Signal;HPM_P1;HPM_P2
2023/12/09 00:01:22;;;;;;;;;;;;;;;5.80;100.00;99442.88;4953650;28;19978;-83
2023/12/09 00:03:48;;;;;;;;;;;;;;;5.83;100.00;99448.91;4952592;28;19919;-84
2023/12/09 00:06:13;;;;;;;;;;;;;;;5.85;100.00;99440.13;4953746;28;19934;-82
2023/12/09 00:08:38;;;;;;;;;;;;;;;5.86;100.00;99442.72;4951403;28;19965;-82
2023/12/09 00:11:03;;;;;;;;;;;;;;;5.89;100.00;99445.25;4951646;28;20463;-82
2023/12/09 00:13:30;;;;;;;;;;;;;;;5.93;100.00;99446.00;4952653;28;19973;-85
2023/12/09 00:15:55;;;;;;;;;;;;;;;5.96;100.00;99443.28;4951333;28;19928;-89
2023/12/09 00:18:21;;;;;;;;;;;;;;;5.95;100.00;99434.56;4952853;28;19919;-83
2023/12/09 00:20:46;;;;;;;;;;;;;;;5.96;100.00;99431.03;4952579;29;19930;-90
2023/12/09 00:23:11;;;;;;;;;;;;;;;5.98;100.00;99426.59;4951477;28;19925;-84
2023/12/09 00:25:36;;;;;;;;;;;;;;;5.96;100.00;99425.78;4951972;28;19927;-92
2023/12/09 00:28:02;;;;;;;;;;;;;;;5.99;100.00;99427.47;4953206;29;19961;-85
2023/12/09 00:30:27;;;;;;;;;;;;;;;6.02;100.00;99427.38;4953745;28;19922;-84
2023/12/09 00:32:52;;;;;;;;;;;;;;;6.02;100.00;99431.78;4953235;28;19922;-87
2023/12/09 00:35:18;;;;;;;;;;;;;;;6.06;100.00;99434.25;4950012;28;19933;-84
2023/12/09 00:37:43;;;;;;;;;;;;;;;6.07;100.00;99435.97;4953922;29;20286;-87
2023/12/09 00:40:09;;;;;;;;;;;;;;;6.12;100.00;99438.47;4952158;28;19926;-83
2023/12/09 00:42:34;;;;;;;;;;;;;;;6.10;100.00;99438.53;4951686;29;20015;-85
2023/12/09 00:44:59;;;;;;;;;;;;;;;6.12;100.00;99433.22;4951740;29;20432;-84
2023/12/09 00:47:25;;;;;;;;;;;;;;;6.15;100.00;99435.75;4953728;28;19943;-85
2023/12/09 00:49:50;;;;;;;;;;;;;;;6.17;100.00;99436.56;4950405;28;20345;-88
2023/12/09 00:52:15;;;;;;;;;;;;;;;6.19;100.00;99434.75;4951336;29;19933;-83
2023/12/09 00:54:41;;;;;;;;;;;;;;;6.20;100.00;99432.97;4952984;29;19922;-85
2023/12/09 00:57:07;;;;;;;;;;;;;;;6.20;100.00;99446.13;4952393;29;20424;-90
2023/12/09 00:59:32;;;;;;;;;;;;;;;6.18;100.00;99447.03;4947924;29;20278;-86
2023/12/09 01:01:58;;;;;;;;;;;;;;;6.20;100.00;99436.47;4952620;28;19949;-83
2023/12/09 01:04:23;;;;;;;;;;;;;;;6.22;100.00;99434.63;4950339;29;19938;-82
2023/12/09 01:06:48;;;;;;;;;;;;;;;6.20;100.00;99435.63;4950722;29;19985;-83
2023/12/09 01:09:13;;;;;;;;;;;;;;;6.26;100.00;99423.13;4953329;28;20473;-89
2023/12/09 01:11:39;;;;;;;;;;;;;;;6.25;100.00;99418.75;4950915;28;19923;-85
2023/12/09 01:14:04;;;;;;;;;;;;;;;7.79;100.00;99424.09;4953715;28;20200;-88
2023/12/09 01:16:30;;;;;;;;;;;;;;;6.85;100.00;99419.47;4953396;28;19919;-81
2023/12/09 01:18:55;;;;;;;;;;;;;;;6.59;100.00;99412.44;4950639;28;19923;-82
2023/12/09 01:21:20;;;;;;;;;;;;;;;6.47;100.00;99407.56;4951388;29;20362;-86
2023/12/09 01:23:46;;;;;;;;;;;;;;;6.48;100.00;99414.56;4951536;28;19971;-87
2023/12/09 01:26:11;;;;;;;;;;;;;;;6.48;100.00;99417.19;4952968;28;19966;-89
2023/12/09 01:28:36;;;;;;;;;;;;;;;6.46;100.00;99411.09;4955836;28;19923;-87
2023/12/09 01:31:02;;;;;;;;;;;;;;;6.47;100.00;99408.44;4955681;28;20406;-80
2023/12/09 01:33:27;;;;;;;;;;;;;;;6.47;100.00;99418.09;4952732;28;19926;-81
2023/12/09 01:35:52;;;;;;;;;;;;;;;6.46;100.00;99412.00;4954277;29;20391;-84
2023/12/09 01:38:17;;;;;;;;;;;;;;;6.48;100.00;99409.31;4956444;28;19946;-82
2023/12/09 01:40:43;;;;;;;;;;;;;;;6.49;100.00;99416.28;4956203;29;19972;-83
2023/12/09 01:43:09;;;;;;;;;;;;;;;6.47;100.00;99404.94;4955572;28;19930;-80
2023/12/09 01:45:35;;;;;;;;;;;;;;;6.51;100.00;99401.28;4956218;28;20005;-79
2023/12/09 01:48:01;;;;;;;;;;;;;;;6.51;100.00;99414.44;4956139;28;19993;-88
2023/12/09 01:50:27;;;;;;;;;;;;;;;6.57;100.00;99408.97;4954868;29;19922;-84
2023/12/09 01:52:52;;;;;;;;;;;;;;;6.57;100.00;99408.13;4955105;28;19933;-82
2023/12/09 01:55:17;;;;;;;;;;;;;;;6.57;100.00;99398.44;4955109;28;20041;-83
2023/12/09 01:57:43;;;;;;;;;;;;;;;6.58;100.00;99401.97;4955170;28;19951;-89
2023/12/09 02:00:08;;;;;;;;;;;;;;;6.60;100.00;99411.53;4948196;29;20286;-92
2023/12/09 02:02:34;;;;;;;;;;;;;;;6.57;100.00;99416.88;4954834;28;19934;-81
2023/12/09 02:04:59;;;;;;;;;;;;;;;6.58;100.00;99410.72;4953218;28;19926;-84
2023/12/09 02:07:25;;;;;;;;;;;;;;;6.60;100.00;99394.88;4956260;29;19948;-81
2023/12/09 02:09:50;;;;;;;;;;;;;;;6.60;100.00;99403.63;4953788;29;19927;-82
2023/12/09 02:12:28;;;;;;;;;;;;;;;6.63;100.00;99398.25;4954803;29;19924;-82
2023/12/09 02:14:58;;;;;;;;;;;;;;;6.62;100.00;99412.34;4954813;29;20362;-82
2023/12/09 02:17:32;;;;;;;;;;;;;;;6.63;100.00;99410.56;4951426;28;20017;-81
2023/12/09 02:19:58;;;;;;;;;;;;;;;6.64;100.00;99423.69;4954902;28;19925;-82
2023/12/09 02:22:24;;;;;;;;;;;;;;;6.66;100.00;99419.22;4956111;29;19930;-85
2023/12/09 02:24:49;;;;;;;;;;;;;;;6.68;100.00;99411.28;4954589;28;19922;-82
2023/12/09 02:27:17;;;;;;;;;;;;;;;6.71;100.00;99395.38;4954178;29;19922;-82
2023/12/09 02:29:46;;;;;;;;;;;;;;;6.72;100.00;99394.47;4954191;29;19977;-81
2023/12/09 02:32:13;;;;;;;;;;;;;;;6.68;100.00;99388.44;4955321;29;19922;-85
2023/12/09 02:34:39;;;;;;;;;;;;;;;6.72;100.00;99397.13;4952785;28;20286;-83
2023/12/09 02:37:05;;;;;;;;;;;;;;;6.73;100.00;99383.91;4951851;28;19931;-87
2023/12/09 02:39:32;;;;;;;;;;;;;;;6.76;100.00;99397.88;4949553;28;19926;-84
2023/12/09 02:41:58;;;;;;;;;;;;;;;6.75;100.00;99375.06;4954471;28;19922;-80
2023/12/09 02:44:23;;;;;;;;;;;;;;;6.80;100.00;99383.69;4953834;29;19925;-81
2023/12/09 02:46:55;;;;;;;;;;;;;;;6.78;100.00;99367.06;4953337;28;20378;-88
2023/12/09 06:26:31;;;;;;;;;;;;;;;6.55;100.00;99248.47;4975176;28;19972;-79
2023/12/09 06:28:56;;;;;;;;;;;;;;;6.58;100.00;99247.50;4975148;28;19982;-80
2023/12/09 06:31:21;;;;;;;;;;;;;;;6.63;100.00;99235.03;4975539;28;20365;-81
2023/12/09 06:33:47;;;;;;;;;;;;;;;6.62;100.00;99251.75;4975385;28;19914;-82
2023/12/09 06:36:12;;;;;;;;;;;;;;;6.71;100.00;99254.03;4975282;28;20432;-81
2023/12/09 06:38:39;;;;;;;;;;;;;;;6.77;100.00;99252.13;4974167;28;20460;-82
2023/12/09 06:41:04;;;;;;;;;;;;;;;6.81;100.00;99259.00;4974036;28;20293;-81
2023/12/09 06:43:29;;;;;;;;;;;;;;;6.82;100.00;99256.31;4974079;28;19918;-82
2023/12/09 06:45:55;;;;;;;;;;;;;;;6.86;100.00;99270.22;4975051;28;19925;-82
2023/12/09 06:48:20;;;;;;;;;;;;;;;6.89;100.00;99272.75;4975055;28;19918;-83
2023/12/09 06:50:45;;;;;;;;;;;;;;;6.88;100.00;99255.25;4973716;28;19922;-83
2023/12/09 06:53:13;;;;;;;;;;;;;;;6.91;100.00;99255.13;4973708;28;19925;-82
2023/12/09 06:55:38;;;;;;;;;;;;;;;6.92;100.00;99251.56;4975004;28;19918;-85
2023/12/09 06:58:04;;;;;;;;;;;;;;;6.97;100.00;99262.78;4974841;28;20393;-82
2023/12/09 07:00:29;;;;;;;;;;;;;;;6.98;100.00;99255.75;4973695;28;20274;-82
2023/12/09 07:02:54;;;;;;;;;;;;;;;7.00;100.00;99246.88;4974800;28;19929;-84
2023/12/09 07:05:20;;;;;;;;;;;;;;;7.03;100.00;99251.16;4989588;28;20385;-82
2023/12/09 07:07:45;;;;;;;;;;;;;;;7.05;100.00;99238.78;4973478;28;20012;-81
2023/12/09 07:10:11;;;;;;;;;;;;;;;7.06;100.00;99222.94;4974530;28;19961;-82
2023/12/09 07:12:36;;;;;;;;;;;;;;;7.07;100.00;99223.81;4974658;28;19945;-85
2023/12/09 07:15:02;;;;;;;;;;;;;;;7.11;100.00;99216.66;4974616;28;19957;-82
2023/12/09 07:17:27;;;;;;;;;;;;;;;7.13;100.00;99217.44;4973367;28;19922;-83
2023/12/09 07:19:52;;;;;;;;;;;;;;;7.15;100.00;99228.75;4972248;28;19918;-82
2023/12/09 07:22:20;;;;;;;;;;;;;;;7.16;100.00;99222.59;4974464;28;20300;-83
2023/12/09 07:24:46;;;;;;;;;;;;;;;7.16;100.00;99218.16;4971078;28;19926;-83
2023/12/09 07:27:11;;;;;;;;;;;;;;;7.17;100.00;99213.78;4974199;28;19918;-84
2023/12/09 07:29:36;;;;;;;;;;;;;;;7.22;100.00;99211.81;4974331;28;19964;-83
2023/12/09 07:32:02;;;;;;;;;;;;;;;7.23;100.00;99227.56;4974252;28;20289;-82
2023/12/09 07:34:27;;;;;;;;;;;;;;;7.26;100.00;99218.72;4974177;28;19918;-83
2023/12/09 07:36:53;;;;;;;;;;;;;;;7.27;100.00;99220.41;4974163;28;20057;-82
2023/12/09 07:39:18;;;;;;;;;;;;;;;7.25;100.00;99225.72;4972836;28;20009;-82
2023/12/09 07:41:44;;;;;;;;;;;;;;;7.30;100.00;99214.16;4974159;28;19918;-82
2023/12/09 07:44:09;;;;;;;;;;;;;;;7.31;100.00;99205.31;4974175;28;19981;-81
2023/12/09 07:46:36;;;;;;;;;;;;;;;7.32;100.00;99205.25;4988088;28;19926;-81
2023/12/09 07:49:01;;;;;;;;;;;;;;;7.35;100.00;99197.25;4973743;28;19927;-81
2023/12/09 07:51:26;;;;;;;;;;;;;;;7.39;100.00;99204.13;4974191;28;19922;-82
2023/12/09 07:53:51;;;;;;;;;;;;;;;7.40;100.00;99200.59;4972515;28;20385;-82
2023/12/09 07:56:17;;;;;;;;;;;;;;;7.43;100.00;99200.44;4973874;28;19929;-82
2023/12/09 07:58:42;;;;;;;;;;;;;;;7.41;100.00;99178.56;4973745;28;19918;-81
2023/12/09 08:01:08;;;;;;;;;;;;;;;7.46;100.00;99176.59;4972575;28;19929;-82
2023/12/09 08:03:34;;;;;;;;;;;;;;;7.48;100.00;99165.13;4972412;28;20370;-81
2023/12/09 08:06:00;;;;;;;;;;;;;;;7.48;100.00;99155.44;4973673;28;19929;-81
2023/12/09 08:08:26;;;;;;;;;;;;;;;7.11;100.00;99158.69;4972407;28;19926;-81
2023/12/09 08:10:52;;;;;;;;;;;;;;;5.95;100.00;99158.41;4973588;28;19929;-82
2023/12/09 08:13:17;;;;;;;;;;;;;;;5.48;100.00;99158.22;4973637;28;19918;-81
2023/12/09 08:15:43;;;;;;;;;;;;;;;5.25;100.00;99177.34;4973692;28;20456;-80
2023/12/09 08:18:08;;;;;;;;;;;;;;;5.11;100.00;99185.63;4972333;28;19926;-80
2023/12/09 08:20:34;;;;;;;;;;;;;;;4.90;100.00;99185.34;4972152;28;19925;-81
2023/12/09 08:23:00;;;;;;;;;;;;;;;4.83;100.00;99193.44;4970920;28;19933;-80
2023/12/09 08:25:25;;;;;;;;;;;;;;;4.72;100.00;99173.63;4973078;28;19930;-79
2023/12/09 08:27:50;;;;;;;;;;;;;;;4.63;100.00;99173.88;4973548;28;20449;-80
2023/12/09 08:38:22;;;;;;;;;;;;;;;4.23;100.00;99163.63;5446234;23;19930;-86
2023/12/09 08:40:48;;;;;;;;;;;;;;;4.24;100.00;99171.44;4933583;29;19922;-85
2023/12/09 08:43:13;;;;;;;;;;;;;;;4.11;100.00;99152.56;4934926;29;19927;-83
2023/12/09 08:45:38;;;;;;;;;;;;;;;4.07;100.00;99156.19;4934950;29;19970;-84
2023/12/09 08:48:04;;;;;;;;;;;;;;;4.04;100.00;99151.00;4934690;29;19970;-84
2023/12/09 08:50:29;;;;;;;;;;;;;;;4.09;100.00;99151.75;4934777;29;19977;-85
2023/12/09 08:52:54;;;;;;;;;;;;;;;3.92;100.00;99135.59;4932248;29;19945;-82
2023/12/09 08:55:19;;;;;;;;;;;;;;;3.89;100.00;99143.53;4934066;29;20017;-85
2023/12/09 08:57:45;;;;;;;;;;;;;;;3.86;100.00;99127.88;4934718;29;20688;-84
2023/12/09 09:00:10;;;;;;;;;;;;;;;3.84;100.00;99137.56;4933612;29;19938;-84
2023/12/09 09:02:36;;;;;;;;;;;;;;;3.90;100.00;99134.78;4933333;29;20021;-85
2023/12/09 09:05:03;;;;;;;;;;;;;;;3.82;100.00;99142.84;4933533;29;19918;-85
2023/12/09 09:07:28;;;;;;;;;;;;;;;3.75;100.00;99131.66;4932082;29;19951;-82
2023/12/09 09:09:53;;;;;;;;;;;;;;;3.77;100.00;99140.34;4934691;29;19923;-83
2023/12/09 09:12:18;;;;;;;;;;;;;;;3.71;100.00;99144.88;4934763;29;19926;-86
2023/12/09 09:14:44;;;;;;;;;;;;;;;3.64;100.00;99124.06;4933217;29;20370;-84
2023/12/09 09:17:09;;;;;;;;;;;;;;;3.69;100.00;99108.22;4934575;29;19919;-86
2023/12/09 09:19:35;;;;;;;;;;;;;;;3.70;100.00;99114.31;4929011;29;19923;-86
2023/12/09 09:22:00;;;;;;;;;;;;;;;3.70;100.00;99116.94;4932041;29;20042;-85
2023/12/09 09:24:25;;;;;;;;;;;;;;;3.66;100.00;99110.94;4934525;29;19927;-85
2023/12/09 09:26:51;;;;;;;;;;;;;;;3.58;100.00;99099.78;4934542;29;19922;-82
2023/12/09 09:29:16;;;;;;;;;;;;;;;3.57;100.00;99098.91;4934482;29;20045;-83
2023/12/09 09:31:41;;;;;;;;;;;;;;;3.59;100.00;99097.13;4934487;29;19974;-83
2023/12/09 09:34:06;;;;;;;;;;;;;;;3.66;100.00;99087.34;4934252;29;19930;-86
2023/12/09 09:36:32;;;;;;;;;;;;;;;3.58;100.00;99087.53;4932607;29;20142;-83
2023/12/09 09:38:57;;;;;;;;;;;;;;;3.56;100.00;99088.50;4932204;28;19923;-83
2023/12/09 09:41:26;;;;;;;;;;;;;;;3.58;100.00;99079.69;4934393;29;19923;-84
2023/12/09 09:44:11;;;;;;;;;;;;;;;3.64;100.00;99082.16;4932889;29;19915;-85
2023/12/09 09:46:38;;;;;;;;;;;;;;;3.55;100.00;99085.00;4932931;29;19923;-84
2023/12/09 09:49:04;;;;;;;;;;;;;;;3.59;100.00;99088.38;4936507;29;19919;-84
2023/12/09 09:51:30;;;;;;;;;;;;;;;3.72;100.00;99081.94;4936160;29;19973;-85
2023/12/09 09:54:03;;;;;;;;;;;;;;;3.59;100.00;99064.81;4935588;29;19962;-84
2023/12/09 09:56:29;;;;;;;;;;;;;;;3.64;100.00;99070.81;4937394;29;19919;-88
2023/12/09 09:58:54;;;;;;;;;;;;;;;3.61;100.00;99076.97;4936073;29;19969;-84
2023/12/09 10:01:21;;;;;;;;;;;;;;;3.68;100.00;99072.44;4936240;29;19965;-84
2023/12/09 10:03:46;;;;;;;;;;;;;;;3.58;100.00;99060.50;4951551;29;20039;-85
2023/12/09 10:06:12;;;;;;;;;;;;;;;3.49;100.00;99045.00;4951971;29;20017;-85
2023/12/09 10:08:37;;;;;;;;;;;;;;;3.54;100.00;99040.50;4934669;29;19938;-90
2023/12/09 10:11:03;;;;;;;;;;;;;;;3.49;100.00;99026.66;4952446;29;20021;-86
2023/12/09 10:13:28;;;;;;;;;;;;;;;3.42;100.00;99013.72;4930096;29;19939;-86
2023/12/09 10:15:53;;;;;;;;;;;;;;;3.45;100.00;99013.66;4935969;29;19930;-85
2023/12/09 10:18:20;;;;;;;;;;;;;;;3.36;100.00;99005.19;4936035;29;19923;-86
2023/12/09 10:20:46;;;;;;;;;;;;;;;3.45;100.00;98991.84;4935867;29;19973;-85
2023/12/09 10:23:12;;;;;;;;;;;;;;;3.40;100.00;98989.34;4935822;29;20005;-86
2023/12/09 10:25:39;;;;;;;;;;;;;;;3.77;100.00;98977.84;4936147;29;20006;-88
2023/12/09 10:28:06;;;;;;;;;;;;;;;4.33;100.00;98965.78;4937135;29;19919;-85
2023/12/09 10:30:31;;;;;;;;;;;;;;;4.70;100.00;98964.63;4935747;29;19923;-84
2023/12/09 10:32:58;;;;;;;;;;;;;;;4.91;100.00;98953.44;4937036;29;19926;-83
2023/12/09 10:35:24;;;;;;;;;;;;;;;5.14;100.00;98943.03;4935610;29;19934;-84
2023/12/09 10:37:52;;;;;;;;;;;;;;;5.25;100.00;98946.19;4934315;29;19922;-84
2023/12/09 10:40:19;;;;;;;;;;;;;;;5.36;100.00;98924.78;4942464;29;19923;-84
2023/12/09 10:42:44;;;;;;;;;;;;;;;5.44;100.00;98915.72;4945082;29;19926;-85
2023/12/09 10:45:11;;;;;;;;;;;;;;;5.55;100.00;98907.47;4946648;28;19923;-84
2023/12/09 10:47:36;;;;;;;;;;;;;;;5.71;100.00;98914.75;4952821;28;19928;-86
2023/12/09 10:50:03;;;;;;;;;;;;;;;5.80;100.00;98910.00;4946329;29;19919;-86
2023/12/09 10:52:29;;;;;;;;;;;;;;;5.88;100.00;98899.22;4943997;29;19978;-90
2023/12/09 10:54:54;;;;;;;;;;;;;;;5.97;100.00;98887.53;4944702;29;19922;-86
2023/12/09 11:00:30;;;;;;;;;;;;;;;6.11;100.00;98884.34;4946500;29;20005;-82
2023/12/09 11:02:56;;;;;;;;;;;;;;;6.22;100.00;98870.78;4945901;28;19923;-86
2023/12/09 11:05:22;;;;;;;;;;;;;;;6.39;100.00;98863.09;4946721;29;20405;-84
2023/12/09 11:07:47;;;;;;;;;;;;;;;6.47;100.00;98854.88;4945334;29;19934;-84
2023/12/09 11:10:13;;;;;;;;;;;;;;;6.46;100.00;98838.25;4945654;29;19923;-85
2023/12/09 11:12:40;;;;;;;;;;;;;;;6.55;100.00;98834.34;4946000;28;19918;-86
2023/12/09 11:15:15;;;;;;;;;;;;;;;6.60;100.00;98823.66;4945735;28;20406;-85
2023/12/09 11:17:43;;;;;;;;;;;;;;;6.62;100.00;98812.13;4944428;29;19929;-87
2023/12/09 11:20:16;;;;;;;;;;;;;;;6.68;100.00;98814.50;4945770;29;20425;-87
2023/12/09 11:22:43;;;;;;;;;;;;;;;6.74;100.00;98800.22;4943230;29;20377;-89
2023/12/09 11:25:09;;;;;;;;;;;;;;;6.88;100.00;98797.84;4945991;29;20290;-89
2023/12/09 11:27:36;;;;;;;;;;;;;;;6.90;100.00;98797.78;4945836;28;19922;-90
2023/12/09 11:30:02;;;;;;;;;;;;;;;6.94;100.00;98780.94;4944480;29;19919;-88
2023/12/09 11:32:29;;;;;;;;;;;;;;;6.94;100.00;98775.66;4952210;29;20263;-84
2023/12/09 11:34:54;;;;;;;;;;;;;;;6.97;100.00;98753.59;4944983;29;19925;-84
2023/12/09 11:37:20;;;;;;;;;;;;;;;7.01;100.00;98745.50;4943933;29;19934;-83
2023/12/09 11:39:45;;;;;;;;;;;;;;;7.06;100.00;98743.50;4960432;28;19926;-86
2023/12/09 11:42:11;;;;;;;;;;;;;;;7.18;100.00;98741.22;4956516;28;19918;-84
2023/12/09 11:44:36;;;;;;;;;;;;;;;7.20;100.00;98739.41;4974862;28;20370;-88
2023/12/09 11:47:02;;;;;;;;;;;;;;;7.24;100.00;98726.03;4956866;28;19926;-84
2023/12/09 11:49:28;;;;;;;;;;;;;;;7.28;100.00;98724.09;4974226;28;19922;-88
2023/12/09 11:51:54;;;;;;;;;;;;;;;7.34;100.00;98712.38;4973021;28;19984;-84
2023/12/09 11:54:19;;;;;;;;;;;;;;;7.40;100.00;98718.25;4955770;28;19961;-83
2023/12/09 11:56:45;;;;;;;;;;;;;;;7.42;100.00;98720.81;4974134;28;19922;-84
2023/12/09 11:59:13;;;;;;;;;;;;;;;7.41;100.00;98714.66;4973738;28;19914;-87
2023/12/09 12:02:28;;;;;;;;;;;;;;;7.52;100.00;98694.88;4973797;28;19965;-88
2023/12/09 12:04:54;;;;;;;;;;;;;;;7.22;100.00;98696.22;4894759;29;20347;-83
2023/12/09 12:07:19;;;;;;;;;;;;;;;6.14;100.00;98689.59;4893161;29;19980;-84
2023/12/09 12:09:44;;;;;;;;;;;;;;;5.56;100.00;98677.91;4936495;28;19925;-83
2023/12/09 12:12:09;;;;;;;;;;;;;;;5.45;100.00;98669.59;4973513;28;19922;-84
2023/12/09 12:14:36;;;;;;;;;;;;;;;5.22;100.00;98654.75;4973458;28;19918;-83
2023/12/09 12:17:01;;;;;;;;;;;;;;;5.08;100.00;98644.78;4973218;28;19961;-85
2023/12/09 12:19:28;;;;;;;;;;;;;;;4.99;100.00;98622.34;4973737;28;20020;-84
2023/12/09 12:21:54;;;;;;;;;;;;;;;4.83;100.00;98595.81;4971968;28;19922;-85
2023/12/09 12:24:20;;;;;;;;;;;;;;;4.79;100.00;98580.28;4955631;28;19918;-87
2023/12/09 12:26:45;;;;;;;;;;;;;;;4.87;100.00;98593.97;4955569;28;20258;-84
2023/12/09 12:29:16;;;;;;;;;;;;;;;4.71;100.00;98612.06;4955795;28;19922;-84
2023/12/09 12:31:41;;;;;;;;;;;;;;;4.54;100.00;98584.66;4973276;28;19982;-83
2023/12/09 12:34:14;;;;;;;;;;;;;;;4.62;100.00;98568.63;4950628;28;20460;-84
2023/12/09 12:36:39;;;;;;;;;;;;;;;4.58;100.00;98560.94;4953550;28;19929;-84
2023/12/09 12:39:06;;;;;;;;;;;;;;;4.62;100.00;98552.91;4972970;28;19922;-86
2023/12/09 12:41:31;;;;;;;;;;;;;;;4.60;100.00;98546.00;4973714;28;19929;-83
2023/12/09 12:43:57;;;;;;;;;;;;;;;4.51;100.00;98544.59;4955289;28;20361;-82
2023/12/09 12:46:22;;;;;;;;;;;;;;;4.47;100.00;98538.59;4973335;28;19922;-82
2023/12/09 12:48:48;;;;;;;;;;;;;;;4.35;100.00;98544.31;4973418;28;19928;-83
2023/12/09 12:51:13;;;;;;;;;;;;;;;4.34;100.00;98529.47;4973879;28;19924;-88
2023/12/09 12:53:38;;;;;;;;;;;;;;;4.38;100.00;98523.22;4971932;28;19922;-83
2023/12/09 12:56:04;;;;;;;;;;;;;;;4.38;100.00;98520.59;4972779;28;20108;-86
2023/12/09 12:58:29;;;;;;;;;;;;;;;4.38;100.00;98512.72;4972920;28;19976;-83
2023/12/09 13:00:54;;;;;;;;;;;;;;;4.34;100.00;98500.63;4972802;28;20012;-83
2023/12/09 13:03:20;;;;;;;;;;;;;;;4.31;100.00;98496.38;4973046;28;20480;-86
2023/12/09 13:05:45;;;;;;;;;;;;;;;4.22;100.00;98493.25;4954944;28;19918;-84
2023/12/09 13:08:10;;;;;;;;;;;;;;;4.26;100.00;98489.56;4971803;28;20300;-84
2023/12/09 13:10:36;;;;;;;;;;;;;;;4.36;100.00;98485.69;4972800;28;19925;-86
2023/12/09 13:13:01;;;;;;;;;;;;;;;4.38;100.00;98465.50;4954883;28;19930;-83
2023/12/09 13:15:27;;;;;;;;;;;;;;;4.26;100.00;98452.84;4973296;28;19965;-83
2023/12/09 13:17:52;;;;;;;;;;;;;;;4.31;100.00;98453.56;4955027;28;19922;-84
2023/12/09 13:20:17;;;;;;;;;;;;;;;4.21;100.00;98434.69;4954859;28;19919;-86
2023/12/09 13:22:45;;;;;;;;;;;;;;;4.27;100.00;98418.72;4974073;28;19972;-84
2023/12/09 13:25:10;;;;;;;;;;;;;;;4.13;100.00;98419.28;4958659;28;19922;-83
2023/12/09 13:27:37;;;;;;;;;;;;;;;4.16;100.00;98402.53;4976707;28;19941;-83
2023/12/09 13:30:04;;;;;;;;;;;;;;;4.20;100.00;98398.91;4958315;28;20388;-83
2023/12/09 13:32:30;;;;;;;;;;;;;;;4.03;100.00;98375.94;4975685;28;19926;-84
2023/12/09 13:34:55;;;;;;;;;;;;;;;4.03;100.00;98370.72;4958406;28;19918;-84
2023/12/09 13:37:20;;;;;;;;;;;;;;;3.95;100.00;98357.06;4957058;28;19972;-91
2023/12/09 13:39:45;;;;;;;;;;;;;;;3.97;100.00;98339.50;4958246;28;19930;-86
2023/12/09 13:42:12;;;;;;;;;;;;;;;4.08;100.00;98337.31;4958142;28;19928;-86
2023/12/09 13:44:38;;;;;;;;;;;;;;;4.14;100.00;98336.22;4976382;28;19922;-81
2023/12/09 13:47:03;;;;;;;;;;;;;;;4.16;100.00;98335.25;4958148;28;19929;-86
2023/12/09 13:49:28;;;;;;;;;;;;;;;4.08;100.00;98328.59;4958061;28;19953;-85
2023/12/09 13:51:54;;;;;;;;;;;;;;;4.07;100.00;98319.00;4956840;28;20242;-84
2023/12/09 13:54:22;;;;;;;;;;;;;;;3.98;100.00;98315.84;4976355;28;19960;-82
2023/12/09 13:56:47;;;;;;;;;;;;;;;3.98;100.00;98309.75;4958419;28;19922;-82
2023/12/09 13:59:13;;;;;;;;;;;;;;;4.04;100.00;98306.91;4975853;28;20584;-82
2023/12/09 14:01:38;;;;;;;;;;;;;;;4.06;100.00;98302.44;4975967;28;19914;-83
2023/12/09 14:04:05;;;;;;;;;;;;;;;4.02;100.00;98294.75;4975854;28;19929;-83
2023/12/09 14:06:30;;;;;;;;;;;;;;;4.22;100.00;98286.09;4957933;28;19969;-83
2023/12/09 14:08:55;;;;;;;;;;;;;;;4.22;100.00;98276.47;4974467;28;20005;-81
2023/12/09 14:11:22;;;;;;;;;;;;;;;4.04;100.00;98272.81;4975719;28;19933;-84
2023/12/09 14:13:47;;;;;;;;;;;;;;;4.03;100.00;98258.00;4975620;28;19921;-83
2023/12/09 14:16:13;;;;;;;;;;;;;;;3.93;100.00;98244.41;4975562;28;19918;-83
2023/12/09 14:18:38;;;;;;;;;;;;;;;3.93;100.00;98243.56;4957791;28;19918;-84
2023/12/09 14:21:07;;;;;;;;;;;;;;;4.00;100.00;98237.16;4975861;28;20281;-83
2023/12/09 14:23:33;;;;;;;;;;;;;;;3.93;100.00;98212.13;4974200;28;19918;-82
2023/12/09 14:25:58;;;;;;;;;;;;;;;4.01;100.00;98204.78;4957366;28;20388;-83
2023/12/09 14:28:24;;;;;;;;;;;;;;;4.19;100.00;98204.00;4974662;28;19918;-83
2023/12/09 14:30:49;;;;;;;;;;;;;;;4.12;100.00;98193.88;4957428;28;19928;-84
2023/12/09 14:33:14;;;;;;;;;;;;;;;4.03;100.00;98179.38;4975027;28;19918;-83
2023/12/09 14:35:40;;;;;;;;;;;;;;;4.14;100.00;98171.91;4975238;28;19969;-82
2023/12/09 14:38:06;;;;;;;;;;;;;;;4.17;100.00;98156.03;4956605;28;19918;-82
2023/12/09 14:40:31;;;;;;;;;;;;;;;4.15;100.00;98160.50;4974828;28;19926;-82
2023/12/09 14:42:56;;;;;;;;;;;;;;;3.98;100.00;98157.75;4975492;28;19922;-85
2023/12/09 14:45:22;;;;;;;;;;;;;;;3.95;100.00;98139.53;4975071;28;19973;-82
2023/12/09 14:47:47;;;;;;;;;;;;;;;3.86;100.00;98146.03;4975186;28;20404;-85
2023/12/09 14:50:12;;;;;;;;;;;;;;;3.86;100.00;98125.06;4957131;28;19965;-82
2023/12/09 14:52:38;;;;;;;;;;;;;;;4.12;100.00;98129.19;4973817;28;19928;-83
2023/12/09 14:55:03;;;;;;;;;;;;;;;3.91;100.00;98130.06;4956788;28;19918;-83
2023/12/09 14:57:29;;;;;;;;;;;;;;;3.80;100.00;98120.91;4956971;28;19929;-84
2023/12/09 14:59:54;;;;;;;;;;;;;;;3.76;100.00;98114.09;4957068;28;20003;-83
2023/12/09 15:02:19;;;;;;;;;;;;;;;3.80;100.00;98099.13;4974854;28;20413;-83
2023/12/09 15:04:47;;;;;;;;;;;;;;;3.91;100.00;98099.50;4974915;28;19921;-82
2023/12/09 15:07:12;;;;;;;;;;;;;;;3.95;100.00;98080.09;4955059;28;19937;-83
2023/12/09 15:09:37;;;;;;;;;;;;;;;3.79;100.00;98068.56;4956594;28;19925;-82
2023/12/09 15:12:03;;;;;;;;;;;;;;;3.77;100.00;98060.78;4974469;28;20016;-82
2023/12/09 15:14:28;;;;;;;;;;;;;;;3.76;100.00;98060.84;4974829;28;19933;-82
2023/12/09 15:16:53;;;;;;;;;;;;;;;3.88;100.00;98054.22;4974629;28;19964;-82
2023/12/09 15:19:18;;;;;;;;;;;;;;;3.74;100.00;98044.34;4956444;28;19981;-84
2023/12/09 15:21:52;;;;;;;;;;;;;;;3.72;100.00;98043.53;4955695;28;19962;-90
2023/12/09 15:24:17;;;;;;;;;;;;;;;3.73;100.00;98029.53;4974190;28;19918;-83
2023/12/09 15:26:43;;;;;;;;;;;;;;;3.79;100.00;98026.66;4974549;28;19918;-82
2023/12/09 15:29:08;;;;;;;;;;;;;;;3.81;100.00;98012.59;4974269;28;19970;-83
2023/12/09 15:31:33;;;;;;;;;;;;;;;3.76;100.00;98021.53;4974462;28;19922;-85
2023/12/09 15:33:58;;;;;;;;;;;;;;;3.64;100.00;98022.94;4956228;28;19918;-83
2023/12/09 15:36:24;;;;;;;;;;;;;;;3.74;100.00;98013.75;4974262;28;20378;-82
2023/12/09 15:38:49;;;;;;;;;;;;;;;3.68;100.00;98006.16;4972930;28;20271;-82
2023/12/09 15:41:14;;;;;;;;;;;;;;;3.63;100.00;97993.25;4974058;28;20013;-82
2023/12/09 15:43:39;;;;;;;;;;;;;;;3.67;100.00;97978.28;4973968;28;19918;-81
2023/12/09 15:46:05;;;;;;;;;;;;;;;3.67;100.00;97975.66;4973541;28;19965;-83
2023/12/09 15:48:30;;;;;;;;;;;;;;;3.67;100.00;97980.91;4971583;28;19922;-86
2023/12/09 15:50:55;;;;;;;;;;;;;;;3.63;100.00;97969.69;4974127;28;19925;-81
2023/12/09 15:53:20;;;;;;;;;;;;;;;3.58;100.00;97987.38;4971928;28;19933;-83
2023/12/09 15:55:46;;;;;;;;;;;;;;;8.23;100.00;97958.69;4973951;28;19965;-85
2023/12/09 15:58:11;;;;;;;;;;;;;;;5.13;100.00;97954.88;4955957;28;19970;-85
2023/12/09 16:00:36;;;;;;;;;;;;;;;4.16;100.00;97947.25;4955903;28;20376;-84
2023/12/09 16:03:02;;;;;;;;;;;;;;;3.90;100.00;97950.19;4973878;28;19922;-85
2023/12/09 16:05:27;;;;;;;;;;;;;;;3.84;100.00;97932.97;4973712;28;20384;-85
2023/12/09 16:07:53;;;;;;;;;;;;;;;3.76;100.00;97919.38;4972306;28;19969;-85
2023/12/09 16:10:18;;;;;;;;;;;;;;;3.74;100.00;97922.06;4973145;28;19988;-84
2023/12/09 16:12:44;;;;;;;;;;;;;;;3.64;100.00;97919.00;4973759;28;19929;-84
2023/12/09 16:15:10;;;;;;;;;;;;;;;3.64;100.00;97916.38;4973688;28;19925;-84
2023/12/09 16:17:37;;;;;;;;;;;;;;;3.60;100.00;97909.56;4973695;28;19922;-87
2023/12/09 16:20:03;;;;;;;;;;;;;;;3.53;100.00;97895.06;4955844;28;20012;-83
2023/12/09 16:22:31;;;;;;;;;;;;;;;3.58;100.00;97892.25;4972349;28;20389;-89
2023/12/09 16:24:56;;;;;;;;;;;;;;;3.55;100.00;97881.91;4956393;28;19925;-89
2023/12/09 16:27:23;;;;;;;;;;;;;;;3.51;100.00;97877.72;4956214;28;19918;-86
2023/12/09 16:29:49;;;;;;;;;;;;;;;3.62;100.00;97870.22;4955570;28;19922;-84